Terminal Aerodrome Forecast
Issued by NWS

Current Version | Previous Version | Graphics & Text | Print | Product List | Glossary On
Versions: 1 2 3 4 5 6 7 8 9 10 11 12 13 14 15 16 17 18 19 20
000
FTUS41 KILN 070500
TAFLCK
TAF
KLCK 070539Z 0706/0806 20006KT P6SM SCT100
     FM071100 21012KT P6SM BKN040
     FM071600 22014G24KT P6SM VCSH BKN030
      TEMPO 0719/0723 5SM -TSRA BKN040CB
     FM072300 22012KT P6SM VCSH BKN035=

USA.gov is the U.S. government's official web portal to all federal, state and local government web resources and services.